< Typhoon 199230 1992 Season Typhoon 199301 >
Typhoon 199231 (HUNT)
General InformationTrack Information on Google MapsDetailed Wind InformationList of All Images || Disaster Info.ResourceGoogle EarthGE AnimationAtom FeedGeoJSON
Detalied Best Track (Time Zone = UTC)
Year Month Day Hour Lat. Long. Pressure (hPa) Wind (kt) Class Image Chart
1992 11 15 06 12.5 159.3 1004 0 2 Image Chart
1992 11 15 12 13.2 158.5 1004 0 2 Image Chart
1992 11 15 18 13.4 157.8 1004 0 2 Image Chart
1992 11 16 00 13.2 157.0 1004 0 2 Image Chart
1992 11 16 06 13.0 156.0 1004 0 2 Image Chart
1992 11 16 12 12.8 155.0 1004 0 2 Image Chart
1992 11 16 18 12.7 153.2 1002 0 2 Image Chart
1992 11 17 00 12.6 151.4 998 35 3 Image Chart
1992 11 17 06 12.5 149.5 996 40 3 Image Chart
1992 11 17 12 12.5 148.0 994 45 3 Image Chart
1992 11 17 18 12.6 147.1 990 50 4 Image Chart
1992 11 18 00 13.0 145.9 980 55 4 Image Chart
1992 11 18 06 13.9 145.0 975 60 4 Image Chart
1992 11 18 12 14.3 144.1 970 65 5 Image Chart
1992 11 18 18 15.0 143.0 960 75 5 Image Chart
1992 11 19 00 15.5 142.2 950 80 5 Image Chart
1992 11 19 06 16.3 141.5 945 85 5 Image Chart
1992 11 19 12 17.2 140.5 945 85 5 Image Chart
1992 11 19 18 18.0 139.7 940 90 5 Image Chart
1992 11 20 00 18.9 139.4 940 90 5 Image Chart
1992 11 20 06 20.0 139.5 940 90 5 Image Chart
1992 11 20 12 21.5 140.2 940 90 5 Image Chart
1992 11 20 18 23.4 141.4 945 85 5 Image Chart
1992 11 21 00 25.5 143.3 950 80 5 Image Chart
1992 11 21 03 26.7 144.7 950 80 5 Image Chart
1992 11 21 06 28.0 146.4 955 75 5 Image Chart
1992 11 21 12 31.0 150.7 965 70 5 Image Chart
1992 11 21 18 34.0 153.4 980 55 4 Image Chart
1992 11 21 21 36.0 156.0 985 0 6 Image Chart
1992 11 22 00 40.0 160.0 986 0 6 Image Chart
1992 11 22 06 43.0 168.0 988 0 6 Image Chart
1992 11 22 12 45.5 175.0 984 0 6 Image Chart
1992 11 22 18 49.2 182.7 972 0 6 Image Chart
Japan Meteorological Agency Best Track Data | Correction Date : 1992-12-25
< Typhoon 199230 1992 Season Typhoon 199301 >

Help